createdAt,value
2018-04-22T00:00:24.882Z,17.77
2018-04-22T00:02:53.734Z,17.80
2018-04-22T00:05:22.448Z,17.81
2018-04-22T00:07:50.559Z,17.78
2018-04-22T00:10:19.019Z,17.81
2018-04-22T00:12:47.830Z,17.77
2018-04-22T00:15:15.969Z,17.72
2018-04-22T00:17:44.056Z,17.69
2018-04-22T00:20:12.476Z,17.75
2018-04-22T00:22:40.578Z,17.72
2018-04-22T00:25:09.559Z,17.65
2018-04-22T00:27:37.652Z,17.66
2018-04-22T00:30:05.776Z,17.58
2018-04-22T00:32:33.891Z,17.58
2018-04-22T00:35:02.006Z,17.71
2018-04-22T00:37:30.099Z,17.63
2018-04-22T00:39:58.569Z,17.62
2018-04-22T00:42:26.679Z,17.56
2018-04-22T00:44:54.764Z,17.51
2018-04-22T00:47:22.881Z,17.47
2018-04-22T00:49:50.988Z,17.42
2018-04-22T00:52:19.544Z,17.45
2018-04-22T00:54:47.649Z,17.45
2018-04-22T00:57:15.785Z,17.47
2018-04-22T00:59:43.923Z,17.41
2018-04-22T01:02:12.009Z,17.25
2018-04-22T01:04:45.714Z,17.21
2018-04-22T01:07:13.798Z,17.21
2018-04-22T01:09:41.876Z,17.23
2018-04-22T01:12:09.980Z,17.22
2018-04-22T01:14:38.070Z,17.24
2018-04-22T01:17:06.166Z,17.29
2018-04-22T01:19:34.356Z,17.21
2018-04-22T01:22:02.435Z,17.14
2018-04-22T01:24:30.543Z,17.18
2018-04-22T01:26:58.667Z,17.20
2018-04-22T01:29:26.809Z,17.23
2018-04-22T01:31:54.909Z,17.20
2018-04-22T01:34:29.204Z,17.22
2018-04-22T01:36:57.287Z,17.23
2018-04-22T01:39:25.442Z,17.20
2018-04-22T01:41:53.533Z,17.17
2018-04-22T01:44:22.247Z,17.23
2018-04-22T01:46:50.713Z,17.27
2018-04-22T01:49:19.253Z,17.18
2018-04-22T01:51:47.359Z,17.07
2018-04-22T01:54:15.434Z,17.03
2018-04-22T01:56:43.541Z,17.02
2018-04-22T01:59:13.363Z,16.91
2018-04-22T02:01:41.448Z,16.89
2018-04-22T02:04:09.777Z,16.86
2018-04-22T02:06:38.397Z,16.87
2018-04-22T02:09:06.509Z,16.78
2018-04-22T02:11:34.615Z,16.69
2018-04-22T02:14:02.710Z,16.57
2018-04-22T02:16:30.805Z,16.50
2018-04-22T02:18:58.936Z,16.53
2018-04-22T02:21:27.014Z,16.52
2018-04-22T02:23:55.128Z,16.45
2018-04-22T02:26:23.211Z,16.48
2018-04-22T02:28:51.309Z,16.49
2018-04-22T02:31:19.410Z,16.49
2018-04-22T02:33:47.499Z,16.53
2018-04-22T02:36:15.594Z,16.49
2018-04-22T02:38:43.711Z,16.51
2018-04-22T02:41:11.802Z,16.50
2018-04-22T02:43:39.973Z,16.52
2018-04-22T02:46:07.999Z,16.50
2018-04-22T02:48:37.454Z,16.57
2018-04-22T02:51:05.663Z,16.61
2018-04-22T02:53:33.792Z,16.51
2018-04-22T02:56:01.901Z,16.55
2018-04-22T02:58:29.988Z,16.54
2018-04-22T03:00:58.112Z,16.58
2018-04-22T03:03:26.235Z,16.58
2018-04-22T03:18:59.450Z,16.01
2018-04-22T03:21:27.554Z,16.01
2018-04-22T03:23:55.656Z,15.96
2018-04-22T03:26:23.763Z,15.93
2018-04-22T03:28:51.847Z,15.88
2018-04-22T03:31:20.033Z,15.93
2018-04-22T03:33:48.210Z,15.90
2018-04-22T03:36:17.427Z,15.80
2018-04-22T03:38:45.533Z,15.87
2018-04-22T03:41:13.633Z,15.93
2018-04-22T03:43:41.744Z,15.96
2018-04-22T03:46:09.853Z,16.02
2018-04-22T03:48:37.998Z,16.05
2018-04-22T03:51:06.107Z,16.05
2018-04-22T03:53:34.218Z,16.09
2018-04-22T03:56:02.313Z,16.05
2018-04-22T03:58:30.410Z,16.01
2018-04-22T04:00:59.492Z,16.08
2018-04-22T04:03:27.579Z,15.97
2018-04-22T04:05:56.507Z,15.94
2018-04-22T04:08:24.626Z,15.92
2018-04-22T04:10:52.782Z,15.91
2018-04-22T04:13:20.873Z,15.88
2018-04-22T04:15:49.830Z,15.96
2018-04-22T04:21:44.040Z,15.91
2018-04-22T04:27:45.112Z,15.92
2018-04-22T04:30:13.214Z,15.85
2018-04-22T04:35:24.734Z,15.86
2018-04-22T04:37:53.843Z,15.89
2018-04-22T04:50:06.947Z,15.56
2018-04-22T04:52:35.043Z,15.56
2018-04-22T04:55:03.156Z,15.66
2018-04-22T04:57:31.339Z,15.67
2018-04-22T04:59:59.842Z,15.75
2018-04-22T05:02:27.913Z,15.69
2018-04-22T05:04:56.022Z,15.65
2018-04-22T05:07:24.128Z,15.71
2018-04-22T05:09:52.222Z,15.82
2018-04-22T05:12:20.345Z,15.73
2018-04-22T05:14:49.395Z,15.77
2018-04-22T05:17:22.972Z,15.86
2018-04-22T05:19:56.671Z,15.81
2018-04-22T05:22:30.260Z,15.83
2018-04-22T05:24:58.376Z,15.90
2018-04-22T05:27:26.504Z,15.94
2018-04-22T05:29:54.589Z,15.85
2018-04-22T05:32:22.694Z,15.81
2018-04-22T05:34:50.778Z,15.83
2018-04-22T05:37:18.880Z,15.92
2018-04-22T05:49:38.336Z,16.07
2018-04-22T05:52:06.423Z,16.11
2018-04-22T05:54:34.542Z,16.14
2018-04-22T05:57:03.314Z,16.22
2018-04-22T05:59:31.417Z,16.15
2018-04-22T06:01:59.506Z,16.05
2018-04-22T06:04:27.647Z,16.20
2018-04-22T06:06:55.840Z,16.37
2018-04-22T06:09:23.898Z,16.42
2018-04-22T06:24:52.015Z,16.48
2018-04-22T06:27:21.264Z,16.43
2018-04-22T06:29:49.331Z,16.56
2018-04-22T06:32:17.445Z,16.64
2018-04-22T06:34:45.536Z,16.63
2018-04-22T06:37:13.934Z,16.78
2018-04-22T06:39:42.173Z,16.91
2018-04-22T06:42:10.300Z,17.08
2018-04-22T06:44:38.683Z,16.97
2018-04-22T06:47:06.771Z,17.00
2018-04-22T06:49:34.919Z,17.04
2018-04-22T06:52:02.987Z,17.07
2018-04-22T06:54:31.083Z,17.00
2018-04-22T06:56:59.184Z,16.94
2018-04-22T06:59:27.583Z,17.16
2018-04-22T07:01:55.699Z,17.29
2018-04-22T07:04:23.815Z,17.32
2018-04-22T07:06:51.907Z,17.57
2018-04-22T07:09:20.355Z,17.70
2018-04-22T07:11:48.483Z,17.99
2018-04-22T07:14:16.607Z,18.30
2018-04-22T07:26:30.117Z,19.15
2018-04-22T07:28:58.213Z,19.34
2018-04-22T07:31:26.334Z,19.57
2018-04-22T07:33:54.456Z,19.54
2018-04-22T07:36:22.596Z,19.37
2018-04-22T07:38:50.795Z,19.80
2018-04-22T07:41:19.607Z,19.58
2018-04-22T07:43:47.712Z,19.64
2018-04-22T07:46:15.833Z,19.79
2018-04-22T07:48:43.915Z,19.84
2018-04-22T07:51:12.042Z,19.94
2018-04-22T07:53:40.160Z,19.95
2018-04-22T07:56:08.256Z,20.15
2018-04-22T07:58:36.381Z,20.32
2018-04-22T08:01:04.453Z,20.30
2018-04-22T08:03:32.617Z,20.07
2018-04-22T08:06:00.737Z,20.11
2018-04-22T08:08:29.436Z,20.16
2018-04-22T08:10:58.567Z,20.28
2018-04-22T08:13:27.158Z,20.23
2018-04-22T08:15:55.254Z,20.19
2018-04-22T08:18:23.351Z,20.32
2018-04-22T08:33:51.526Z,20.78
2018-04-22T08:36:19.563Z,20.68
2018-04-22T08:38:47.650Z,20.59
2018-04-22T08:41:15.752Z,20.35
2018-04-22T08:43:44.783Z,20.15
2018-04-22T08:46:12.928Z,20.08
2018-04-22T08:48:41.059Z,20.12
2018-04-22T08:51:09.147Z,20.28
2018-04-22T08:53:37.245Z,20.38
2018-04-22T08:56:05.361Z,20.45
2018-04-22T08:58:33.461Z,20.48
2018-04-22T09:01:01.546Z,20.49
2018-04-22T09:03:29.656Z,20.50
2018-04-22T09:05:57.777Z,20.47
2018-04-22T09:08:26.416Z,20.43
2018-04-22T09:10:54.536Z,20.44
2018-04-22T09:13:23.061Z,20.31
2018-04-22T09:15:51.823Z,20.23
2018-04-22T09:18:19.919Z,20.14
2018-04-22T09:20:48.036Z,20.17
2018-04-22T09:23:16.135Z,20.16
2018-04-22T09:25:44.222Z,20.15
2018-04-22T09:28:13.202Z,20.17
2018-04-22T09:30:42.119Z,20.17
2018-04-22T09:33:10.251Z,20.12
2018-04-22T09:35:38.467Z,20.17
2018-04-22T09:38:06.563Z,19.95
2018-04-22T09:40:34.672Z,19.89
2018-04-22T09:43:02.842Z,19.86
2018-04-22T09:45:36.687Z,19.85
2018-04-22T09:48:10.449Z,19.82
2018-04-22T09:50:38.808Z,19.83
2018-04-22T09:53:06.896Z,19.47
2018-04-22T09:55:35.002Z,19.26
2018-04-22T09:58:03.101Z,19.15
2018-04-22T10:00:32.117Z,19.22
2018-04-22T10:03:06.430Z,19.19
2018-04-22T10:05:40.049Z,19.41
2018-04-22T10:08:08.147Z,19.51
2018-04-22T10:10:37.135Z,19.61
2018-04-22T10:13:05.204Z,19.73
2018-04-22T10:15:33.287Z,19.70
2018-04-22T10:18:02.208Z,19.87
2018-04-22T10:20:30.313Z,20.06
2018-04-22T10:22:58.404Z,20.24
2018-04-22T10:25:26.495Z,20.45
2018-04-22T10:27:55.536Z,20.54
2018-04-22T10:30:23.986Z,20.70
2018-04-22T10:32:52.743Z,20.98
2018-04-22T10:35:20.839Z,21.08
2018-04-22T10:37:48.963Z,21.22
2018-04-22T10:40:17.057Z,21.53
2018-04-22T10:42:45.188Z,21.64
2018-04-22T10:45:13.331Z,21.78
2018-04-22T10:47:41.460Z,21.83
2018-04-22T10:50:09.552Z,21.79
2018-04-22T10:52:37.649Z,21.99
2018-04-22T10:55:05.765Z,21.98
2018-04-22T10:57:33.859Z,22.11
2018-04-22T11:00:01.991Z,22.16
2018-04-22T11:02:30.079Z,22.28
2018-04-22T11:17:59.002Z,22.88
2018-04-22T11:20:27.141Z,23.10
2018-04-22T11:22:55.269Z,23.32
2018-04-22T11:25:23.361Z,23.24
2018-04-22T11:27:51.461Z,23.32
2018-04-22T11:30:20.943Z,23.56
2018-04-22T11:32:49.067Z,23.35
2018-04-22T11:35:17.879Z,23.56
2018-04-22T11:37:45.979Z,23.80
2018-04-22T11:40:14.091Z,23.70
2018-04-22T11:42:42.195Z,23.57
2018-04-22T11:45:10.327Z,23.61
2018-04-22T11:47:38.450Z,23.80
2018-04-22T11:50:06.877Z,23.91
2018-04-22T11:52:35.851Z,23.92
2018-04-22T11:55:04.183Z,23.88
2018-04-22T11:57:32.291Z,23.71
2018-04-22T12:00:01.832Z,23.92
2018-04-22T12:02:29.964Z,24.12
2018-04-22T12:04:58.122Z,24.30
2018-04-22T12:07:26.195Z,24.24
2018-04-22T12:09:54.301Z,24.19
2018-04-22T12:12:23.173Z,24.32
2018-04-22T12:14:51.278Z,24.19
2018-04-22T12:17:19.683Z,24.09
2018-04-22T12:19:47.773Z,24.18
2018-04-22T12:22:15.899Z,24.27
2018-04-22T12:24:44.303Z,24.41
2018-04-22T12:27:12.396Z,24.43
2018-04-22T12:29:41.315Z,24.43
2018-04-22T12:32:10.048Z,24.51
2018-04-22T12:34:38.157Z,24.56
2018-04-22T12:37:06.462Z,24.83
2018-04-22T12:39:34.560Z,24.93
2018-04-22T12:42:02.651Z,24.86
2018-04-22T12:44:30.756Z,24.80
2018-04-22T12:46:59.899Z,24.70
2018-04-22T12:49:28.095Z,24.89
2018-04-22T12:51:56.547Z,25.04
2018-04-22T12:54:24.641Z,24.98
2018-04-22T12:56:52.787Z,25.08
2018-04-22T12:59:20.932Z,24.88
2018-04-22T13:01:48.977Z,25.05
2018-04-22T13:04:17.792Z,24.97
2018-04-22T13:06:45.904Z,25.05
2018-04-22T13:09:18.964Z,25.10
2018-04-22T13:11:47.387Z,25.15
2018-04-22T13:14:15.483Z,25.20
2018-04-22T13:16:43.579Z,25.17
2018-04-22T13:19:12.083Z,25.01
2018-04-22T13:21:40.485Z,25.14
2018-04-22T13:24:08.563Z,25.06
2018-04-22T13:26:36.675Z,24.90
2018-04-22T13:29:04.789Z,24.99
2018-04-22T13:31:32.879Z,24.92
2018-04-22T13:34:01.012Z,24.97
2018-04-22T13:36:29.094Z,24.95
2018-04-22T13:38:57.237Z,24.92
2018-04-22T13:41:25.328Z,24.80
2018-04-22T13:43:53.436Z,24.74
2018-04-22T13:46:22.156Z,24.80
2018-04-22T13:48:50.718Z,24.78
2018-04-22T13:51:19.276Z,24.68
2018-04-22T13:53:47.348Z,24.71
2018-04-22T13:56:15.451Z,24.57
2018-04-22T13:58:43.840Z,24.50
2018-04-22T14:01:11.942Z,24.59
2018-04-22T14:03:41.029Z,24.49
2018-04-22T14:06:09.231Z,24.41
2018-04-22T14:08:37.537Z,24.33
2018-04-22T14:11:05.667Z,24.33
2018-04-22T14:13:33.803Z,24.34
2018-04-22T14:16:02.160Z,24.20
2018-04-22T14:18:30.262Z,24.14
2018-04-22T14:20:58.382Z,24.06
2018-04-22T14:23:27.270Z,24.02
2018-04-22T14:26:01.226Z,23.91
2018-04-22T14:28:29.557Z,23.82
2018-04-22T14:30:59.064Z,23.80
2018-04-22T14:33:27.174Z,23.77
2018-04-22T14:35:55.320Z,23.68
2018-04-22T14:38:23.396Z,23.65
2018-04-22T14:40:57.985Z,23.64
2018-04-22T14:43:31.781Z,23.60
2018-04-22T14:46:18.498Z,23.54
2018-04-22T14:48:58.495Z,23.50
2018-04-22T14:51:26.597Z,23.48
2018-04-22T14:53:55.540Z,23.50
2018-04-22T14:56:23.644Z,23.54
2018-04-22T14:58:51.727Z,23.55
2018-04-22T15:01:20.117Z,23.53
2018-04-22T15:03:48.224Z,23.51
2018-04-22T15:06:21.743Z,23.49
2018-04-22T15:08:50.475Z,23.48
2018-04-22T15:11:18.562Z,23.45
2018-04-22T15:13:47.652Z,23.45
2018-04-22T15:16:15.772Z,23.43
2018-04-22T15:18:43.869Z,23.43
2018-04-22T15:21:11.981Z,23.44
2018-04-22T15:23:40.411Z,23.31
2018-04-22T15:26:08.503Z,23.19
2018-04-22T15:28:36.631Z,23.11
2018-04-22T15:31:04.774Z,23.06
2018-04-22T15:33:33.263Z,23.03
2018-04-22T15:36:01.385Z,23.03
2018-04-22T15:38:29.575Z,23.00
2018-04-22T15:40:57.649Z,22.99
2018-04-22T15:43:25.780Z,22.99
2018-04-22T15:45:53.864Z,22.96
2018-04-22T15:48:21.982Z,22.95
2018-04-22T15:50:50.099Z,22.95
2018-04-22T15:53:18.217Z,22.93
2018-04-22T15:55:51.884Z,22.91
2018-04-22T15:58:25.542Z,22.92
2018-04-22T16:00:54.402Z,22.93
2018-04-22T16:03:22.506Z,22.96
2018-04-22T16:05:51.224Z,23.00
2018-04-22T16:08:20.064Z,22.94
2018-04-22T16:10:48.158Z,22.89
2018-04-22T16:13:17.120Z,22.87
2018-04-22T16:15:45.560Z,22.88
2018-04-22T16:18:14.178Z,22.89
2018-04-22T16:20:42.288Z,22.90
2018-04-22T16:23:10.918Z,22.93
2018-04-22T16:25:39.826Z,22.93
2018-04-22T16:28:07.936Z,22.93
2018-04-22T16:30:36.073Z,22.94
2018-04-22T16:33:04.504Z,22.92
2018-04-22T16:35:32.659Z,22.90
2018-04-22T16:38:00.711Z,22.92
2018-04-22T16:40:28.859Z,22.93
2018-04-22T16:42:57.835Z,22.89
2018-04-22T16:45:25.910Z,22.85
2018-04-22T16:47:54.361Z,22.89
2018-04-22T16:50:22.459Z,22.88
2018-04-22T16:52:50.551Z,22.88
2018-04-22T16:55:18.680Z,22.91
2018-04-22T16:57:47.664Z,22.89
2018-04-22T17:00:16.452Z,22.80
2018-04-22T17:02:44.591Z,22.78
2018-04-22T17:05:12.704Z,22.72
2018-04-22T17:07:46.345Z,22.65
2018-04-22T17:10:15.281Z,22.69
2018-04-22T17:12:43.407Z,22.63
2018-04-22T17:15:12.135Z,22.60
2018-04-22T17:17:40.279Z,22.53
2018-04-22T17:20:08.408Z,22.40
2018-04-22T17:22:37.306Z,22.40
2018-04-22T17:25:05.403Z,22.40
2018-04-22T17:27:33.518Z,22.36
2018-04-22T17:30:01.608Z,22.36
2018-04-22T17:32:29.706Z,22.36
2018-04-22T17:34:57.809Z,22.29
2018-04-22T17:37:25.891Z,22.22
2018-04-22T17:39:53.983Z,22.21
2018-04-22T17:42:22.133Z,22.20
2018-04-22T17:44:50.207Z,22.13
2018-04-22T17:47:18.945Z,22.14
2018-04-22T17:49:47.379Z,22.12
2018-04-22T17:52:15.479Z,22.11
2018-04-22T17:54:44.272Z,22.06
2018-04-22T17:57:12.994Z,22.08
2018-04-22T17:59:41.949Z,22.00
2018-04-22T18:02:10.118Z,22.00
2018-04-22T18:04:38.244Z,21.97
2018-04-22T18:07:06.343Z,21.93
2018-04-22T18:09:34.433Z,21.92
2018-04-22T18:12:03.119Z,21.95
2018-04-22T18:14:32.124Z,21.93
2018-04-22T18:17:00.824Z,21.85
2018-04-22T18:19:30.422Z,21.84
2018-04-22T18:22:03.862Z,21.78
2018-04-22T18:24:31.960Z,21.75
2018-04-22T18:27:00.041Z,21.72
2018-04-22T18:29:28.805Z,21.68
2018-04-22T18:31:56.895Z,21.51
2018-04-22T18:34:24.992Z,21.42
2018-04-22T18:36:53.147Z,21.36
2018-04-22T18:39:21.237Z,21.30
2018-04-22T18:41:49.375Z,21.25
2018-04-22T18:44:17.504Z,21.18
2018-04-22T18:46:45.649Z,21.20
2018-04-22T18:49:13.744Z,21.22
2018-04-22T18:51:41.975Z,21.25
2018-04-22T18:54:10.066Z,21.21
2018-04-22T18:56:38.318Z,21.22
2018-04-22T18:59:06.425Z,21.15
2018-04-22T19:01:34.566Z,21.19
2018-04-22T19:04:02.720Z,21.25
2018-04-22T19:06:31.586Z,21.18
2018-04-22T19:08:59.688Z,21.18
2018-04-22T19:11:28.755Z,21.13
2018-04-22T19:13:57.147Z,20.98
2018-04-22T19:16:25.292Z,20.79
2018-04-22T19:18:53.378Z,20.76
2018-04-22T19:21:21.495Z,20.66
2018-04-22T19:23:49.590Z,20.52
2018-04-22T19:26:17.721Z,20.38
2018-04-22T19:28:45.873Z,20.38
2018-04-22T19:31:13.942Z,20.41
2018-04-22T19:33:42.287Z,20.38
2018-04-22T19:36:10.404Z,20.26
2018-04-22T19:38:38.471Z,20.11
2018-04-22T19:41:06.577Z,20.03
2018-04-22T19:43:34.696Z,20.06
2018-04-22T19:46:02.787Z,19.98
2018-04-22T19:48:30.897Z,19.99
2018-04-22T19:50:59.372Z,19.91
2018-04-22T19:53:27.449Z,19.95
2018-04-22T19:55:55.601Z,19.72
2018-04-22T19:58:23.726Z,19.66
2018-04-22T20:00:51.810Z,19.63
2018-04-22T20:03:20.794Z,19.49
2018-04-22T20:05:49.476Z,19.48
2018-04-22T20:08:17.569Z,19.46
2018-04-22T20:10:45.685Z,19.40
2018-04-22T20:13:14.584Z,19.42
2018-04-22T20:15:42.687Z,19.41
2018-04-22T20:18:11.532Z,19.31
2018-04-22T20:20:40.546Z,19.30
2018-04-22T20:23:09.275Z,19.32
2018-04-22T20:25:37.428Z,19.36
2018-04-22T20:28:05.530Z,19.37
2018-04-22T20:30:33.689Z,19.25
2018-04-22T20:33:01.791Z,19.26
2018-04-22T20:35:29.903Z,19.39
2018-04-22T20:37:58.284Z,19.30
2018-04-22T20:40:26.400Z,19.29
2018-04-22T20:42:55.142Z,19.21
2018-04-22T20:45:24.176Z,19.20
2018-04-22T20:47:52.268Z,19.15
2018-04-22T20:50:20.346Z,19.08
2018-04-22T20:52:49.692Z,18.94
2018-04-22T20:55:17.884Z,18.95
2018-04-22T20:57:46.339Z,18.98
2018-04-22T21:00:15.410Z,18.97
2018-04-22T21:02:45.231Z,18.93
2018-04-22T21:05:15.036Z,18.88
2018-04-22T21:07:43.110Z,18.84
2018-04-22T21:10:11.502Z,18.84
2018-04-22T21:12:40.621Z,18.87
2018-04-22T21:15:08.700Z,18.88
2018-04-22T21:17:36.822Z,18.83
2018-04-22T21:20:09.954Z,18.85
2018-04-22T21:22:38.843Z,18.92
2018-04-22T21:25:06.967Z,18.98
2018-04-22T21:30:14.447Z,18.80
2018-04-22T21:32:42.531Z,18.75
2018-04-22T21:35:10.823Z,18.83
2018-04-22T21:37:38.935Z,18.76
2018-04-22T21:40:08.559Z,18.73
2018-04-22T21:42:37.376Z,18.68
2018-04-22T21:45:05.494Z,18.62
2018-04-22T21:47:39.799Z,18.59
2018-04-22T21:50:07.898Z,18.63
2018-04-22T21:52:36.015Z,18.48
2018-04-22T21:55:04.099Z,18.53
2018-04-22T21:57:32.203Z,18.40
2018-04-22T22:00:00.295Z,18.38
2018-04-22T22:02:28.411Z,18.35
2018-04-22T22:04:56.507Z,18.48
2018-04-22T22:07:24.583Z,18.37
2018-04-22T22:09:52.684Z,18.37
2018-04-22T22:12:20.772Z,18.39
2018-04-22T22:14:48.871Z,18.32
2018-04-22T22:17:16.985Z,18.30
2018-04-22T22:19:46.003Z,18.24
2018-04-22T22:22:19.531Z,18.35
2018-04-22T22:24:47.623Z,18.28
2018-04-22T22:27:15.721Z,18.28
2018-04-22T22:29:43.847Z,18.34
2018-04-22T22:32:11.943Z,18.38
2018-04-22T22:34:40.031Z,18.36
2018-04-22T22:37:08.139Z,18.49
2018-04-22T22:39:36.242Z,18.43
2018-04-22T22:42:04.913Z,18.37
2018-04-22T22:44:33.731Z,18.22
2018-04-22T22:47:02.599Z,18.30
2018-04-22T22:49:31.063Z,18.30
2018-04-22T22:51:59.149Z,18.35
2018-04-22T22:54:27.249Z,18.20
2018-04-22T22:56:56.611Z,18.32
2018-04-22T22:59:24.707Z,18.27
2018-04-22T23:01:52.779Z,18.28
2018-04-22T23:04:20.944Z,18.33
2018-04-22T23:06:49.003Z,18.06
2018-04-22T23:09:17.175Z,18.11
2018-04-22T23:11:45.262Z,18.14
2018-04-22T23:14:13.355Z,18.09
2018-04-22T23:16:41.475Z,18.09
2018-04-22T23:19:15.145Z,18.03
2018-04-22T23:21:43.959Z,17.96
2018-04-22T23:24:12.367Z,17.90
2018-04-22T23:26:40.418Z,17.88
2018-04-22T23:29:08.573Z,17.85
2018-04-22T23:31:36.647Z,17.73
2018-04-22T23:34:04.728Z,17.81
2018-04-22T23:36:32.817Z,17.83
2018-04-22T23:39:00.940Z,17.71
2018-04-22T23:41:29.027Z,17.76
2018-04-22T23:43:57.139Z,17.85
2018-04-22T23:46:25.226Z,18.00
2018-04-22T23:48:53.306Z,17.89
